Time;durP1;ratioP1;P1;durP2;ratioP2;P2;SDS_P1;SDS_P2;PMS_P1;PMS_P2;Temp;Humidity;BMP_temperature;BMP_pressure;BME280_temperature;BME280_humidity;BME280_pressure;Samples;Min_cycle;Max_cycle;Signal;HPM_P1;HPM_P2
2023/05/10 00:01:27;;;;;;;16.30;12.07;;;13.60;99.90;;;;;;5030875;28;20619;-76
2023/05/10 00:03:53;;;;;;;15.83;12.33;;;13.60;99.90;;;;;;5029637;28;20180;-76
2023/05/10 00:06:19;;;;;;;17.37;11.20;;;13.60;99.90;;;;;;5031011;28;20221;-76
2023/05/10 00:08:45;;;;;;;14.63;10.07;;;13.60;99.90;;;;;;5030935;28;20717;-78
2023/05/10 00:11:10;;;;;;;14.10;10.63;;;13.60;99.90;;;;;;5029557;28;20173;-76
2023/05/10 00:13:36;;;;;;;15.13;10.60;;;13.60;99.90;;;;;;5030949;28;20203;-77
2023/05/10 00:16:02;;;;;;;11.87;9.03;;;13.60;99.90;;;;;;5029666;28;20188;-77
2023/05/10 00:18:27;;;;;;;12.63;9.70;;;13.60;99.90;;;;;;5030839;28;20231;-77
2023/05/10 00:20:53;;;;;;;12.73;10.77;;;13.60;99.90;;;;;;5029706;28;20228;-77
2023/05/10 00:23:18;;;;;;;12.47;9.80;;;13.50;99.90;;;;;;5029244;28;20575;-78
2023/05/10 00:25:44;;;;;;;13.03;9.47;;;13.60;99.90;;;;;;5030748;28;20168;-77
2023/05/10 00:28:09;;;;;;;13.50;9.80;;;13.50;99.90;;;;;;5030452;28;20176;-77
2023/05/10 00:30:35;;;;;;;12.23;10.17;;;13.40;99.90;;;;;;5029402;28;20183;-77
2023/05/10 00:33:00;;;;;;;13.63;10.47;;;13.40;99.90;;;;;;5029299;28;20172;-77
2023/05/10 00:35:26;;;;;;;14.50;10.60;;;13.40;99.90;;;;;;5030469;28;20204;-77
2023/05/10 00:37:52;;;;;;;14.40;10.40;;;13.30;99.90;;;;;;5030358;28;20259;-77
2023/05/10 00:40:17;;;;;;;15.53;11.83;;;13.30;99.90;;;;;;5030460;28;20325;-77
2023/05/10 00:42:43;;;;;;;15.07;11.60;;;13.30;99.90;;;;;;5030245;28;20172;-77
2023/05/10 00:45:08;;;;;;;15.93;11.53;;;13.30;99.90;;;;;;5030488;28;20179;-77
2023/05/10 00:47:34;;;;;;;15.93;11.57;;;13.30;99.90;;;;;;5029341;28;20176;-77
2023/05/10 00:50:00;;;;;;;14.53;11.53;;;13.30;99.90;;;;;;5030255;28;20279;-77
2023/05/10 00:52:28;;;;;;;14.73;11.33;;;13.30;99.90;;;;;;5030407;28;20247;-77
2023/05/10 00:54:54;;;;;;;15.03;11.53;;;13.30;99.90;;;;;;5029219;28;20562;-77
2023/05/10 00:57:20;;;;;;;15.90;11.77;;;13.30;99.90;;;;;;5030579;28;20183;-77
2023/05/10 00:59:46;;;;;;;13.27;11.13;;;13.30;99.90;;;;;;5029475;28;20196;-77
2023/05/10 01:02:12;;;;;;;15.57;11.53;;;13.20;99.90;;;;;;5028971;28;20198;-78
2023/05/10 01:04:39;;;;;;;15.00;11.93;;;13.20;99.90;;;;;;5030797;28;20490;-77
2023/05/10 01:07:04;;;;;;;16.13;11.43;;;13.20;99.90;;;;;;5030290;28;20172;-77
2023/05/10 01:09:30;;;;;;;14.07;10.70;;;13.20;99.90;;;;;;5029057;28;20207;-77
2023/05/10 01:11:56;;;;;;;15.27;11.00;;;13.20;99.90;;;;;;5030625;28;20176;-77
2023/05/10 01:14:22;;;;;;;14.00;10.80;;;13.20;99.90;;;;;;5029058;28;20718;-77
2023/05/10 01:16:49;;;;;;;14.20;10.30;;;13.20;99.90;;;;;;5029239;28;20303;-77
2023/05/10 01:19:27;;;;;;;15.07;10.77;;;13.20;99.90;;;;;;5029097;28;20222;-77
2023/05/10 01:22:04;;;;;;;14.57;11.80;;;13.20;99.90;;;;;;5030103;28;20554;-77
2023/05/10 01:24:58;;;;;;;16.30;12.00;;;13.20;99.90;;;;;;5029170;28;20201;-77
2023/05/10 01:27:37;;;;;;;15.37;12.07;;;13.20;99.90;;;;;;5030326;28;20184;-77
2023/05/10 01:30:12;;;;;;;18.43;11.70;;;13.10;99.90;;;;;;5030288;28;20683;-77
2023/05/10 01:32:50;;;;;;;12.47;9.40;;;13.10;99.90;;;;;;5028710;28;20212;-77
2023/05/10 01:35:24;;;;;;;11.27;8.80;;;13.10;99.90;;;;;;5028567;28;20171;-77
2023/05/10 01:38:04;;;;;;;13.50;8.93;;;13.10;99.90;;;;;;5029851;28;20157;-77
2023/05/10 01:40:36;;;;;;;13.37;8.97;;;13.10;99.90;;;;;;5029917;28;20160;-77
2023/05/10 01:43:07;;;;;;;11.23;8.93;;;13.10;99.90;;;;;;5028426;28;20176;-77
2023/05/10 01:45:39;;;;;;;11.57;9.03;;;13.10;99.90;;;;;;5029782;28;20153;-77
2023/05/10 01:48:11;;;;;;;11.97;9.47;;;13.00;99.90;;;;;;5029722;28;20168;-77
2023/05/10 01:50:43;;;;;;;13.07;10.60;;;13.00;99.90;;;;;;5029481;28;20160;-77
2023/05/10 01:53:11;;;;;;;15.30;10.93;;;13.00;99.90;;;;;;5028155;28;20164;-77
2023/05/10 01:55:52;;;;;;;20.83;12.03;;;13.00;99.90;;;;;;5029123;28;20176;-77
2023/05/10 01:58:28;;;;;;;15.97;11.90;;;13.00;99.90;;;;;;5029143;28;20213;-77
2023/05/10 02:00:55;;;;;;;15.73;11.60;;;13.00;99.90;;;;;;5029074;28;20186;-77
2023/05/10 02:03:23;;;;;;;16.93;12.33;;;13.00;99.90;;;;;;5029464;28;20253;-77
2023/05/10 02:05:50;;;;;;;15.13;11.80;;;13.00;99.90;;;;;;5027921;28;20709;-77
2023/05/10 02:08:17;;;;;;;17.63;12.50;;;13.10;99.90;;;;;;5029167;28;20575;-76
2023/05/10 02:10:44;;;;;;;19.43;12.70;;;13.10;99.90;;;;;;5029070;28;20165;-77
2023/05/10 02:13:12;;;;;;;17.17;11.53;;;13.10;99.90;;;;;;5029029;28;20195;-77
2023/05/10 02:15:40;;;;;;;21.53;12.53;;;13.20;99.90;;;;;;5029174;28;20198;-77
2023/05/10 02:18:06;;;;;;;16.60;12.40;;;13.20;99.90;;;;;;5028816;28;20175;-77
2023/05/10 02:20:33;;;;;;;14.97;11.97;;;13.20;99.90;;;;;;5027706;28;20263;-77
2023/05/10 02:22:59;;;;;;;16.20;12.17;;;13.20;99.90;;;;;;5027565;28;20226;-76
2023/05/10 02:25:26;;;;;;;23.90;12.40;;;13.20;99.90;;;;;;5028726;28;20517;-76
2023/05/10 02:27:55;;;;;;;24.67;12.33;;;13.20;99.90;;;;;;5030950;28;20172;-76
2023/05/10 02:30:23;;;;;;;17.60;11.17;;;13.20;99.90;;;;;;5030643;28;20565;-77
2023/05/10 02:32:50;;;;;;;16.83;11.77;;;13.20;99.90;;;;;;5030895;28;20545;-76
2023/05/10 02:35:16;;;;;;;19.37;11.67;;;13.20;99.90;;;;;;5032209;28;20172;-77
2023/05/10 02:37:43;;;;;;;18.27;11.83;;;13.20;99.90;;;;;;5032000;28;20221;-76
2023/05/10 02:40:10;;;;;;;18.30;12.60;;;13.20;99.90;;;;;;5031895;28;20195;-77
2023/05/10 02:42:40;;;;;;;18.13;12.60;;;13.20;99.90;;;;;;5030507;28;20177;-77
2023/05/10 02:45:11;;;;;;;16.03;10.97;;;13.20;99.90;;;;;;5030421;28;20655;-76
2023/05/10 02:47:36;;;;;;;15.43;11.23;;;13.20;99.90;;;;;;5032326;28;20164;-76
2023/05/10 02:50:03;;;;;;;14.90;10.90;;;13.20;99.90;;;;;;5030167;28;20659;-76
2023/05/10 02:52:36;;;;;;;20.23;11.80;;;13.20;99.90;;;;;;5031497;28;20222;-77
2023/05/10 02:55:04;;;;;;;14.20;10.40;;;13.20;99.90;;;;;;5031554;28;20534;-77
2023/05/10 02:57:34;;;;;;;15.47;11.43;;;13.20;99.90;;;;;;5031533;28;20491;-76
2023/05/10 03:00:01;;;;;;;16.80;12.13;;;13.20;99.90;;;;;;5030384;28;20204;-76
2023/05/10 03:02:26;;;;;;;16.83;12.03;;;13.20;99.90;;;;;;5031780;28;20169;-76
2023/05/10 03:04:52;;;;;;;22.00;11.87;;;13.10;99.90;;;;;;5031720;28;20708;-76
2023/05/10 03:07:21;;;;;;;18.97;12.43;;;13.20;99.90;;;;;;5031552;28;20693;-76
2023/05/10 03:09:47;;;;;;;16.37;10.80;;;13.20;99.90;;;;;;5029904;28;20211;-76
2023/05/10 03:12:32;;;;;;;17.17;11.53;;;13.20;99.90;;;;;;5031083;28;20216;-77
2023/05/10 03:15:07;;;;;;;23.03;12.60;;;13.20;99.90;;;;;;5031718;28;20620;-76
2023/05/10 03:17:51;;;;;;;18.80;12.10;;;13.30;99.90;;;;;;5031581;28;20187;-76
2023/05/10 03:20:42;;;;;;;20.10;12.93;;;13.30;99.90;;;;;;5031357;28;20197;-76
2023/05/10 03:23:11;;;;;;;20.93;11.97;;;13.20;99.90;;;;;;5029801;28;20217;-76
2023/05/10 03:25:39;;;;;;;17.17;11.87;;;13.30;99.90;;;;;;5030922;28;20192;-77
2023/05/10 03:28:05;;;;;;;17.70;11.80;;;13.20;99.90;;;;;;5030928;28;20217;-76
2023/05/10 03:30:33;;;;;;;15.23;11.30;;;13.30;99.90;;;;;;5030983;28;20177;-77
2023/05/10 03:33:05;;;;;;;15.63;11.37;;;13.30;99.90;;;;;;5029667;28;20272;-76
2023/05/10 03:35:30;;;;;;;15.77;11.10;;;13.30;99.90;;;;;;5031095;28;20145;-76
2023/05/10 03:37:56;;;;;;;17.03;10.70;;;13.30;99.90;;;;;;5030194;28;20256;-76
2023/05/10 03:40:22;;;;;;;17.37;10.40;;;13.20;99.90;;;;;;5029360;28;20683;-76
2023/05/10 03:42:48;;;;;;;17.70;10.93;;;13.30;99.90;;;;;;5029583;28;20206;-76
2023/05/10 03:45:13;;;;;;;18.07;11.80;;;13.30;99.90;;;;;;5030068;28;20176;-76
2023/05/10 03:47:39;;;;;;;18.03;12.47;;;13.30;99.90;;;;;;5029784;28;20176;-76
2023/05/10 03:50:05;;;;;;;18.10;11.57;;;13.30;99.90;;;;;;5029192;28;20204;-76
2023/05/10 03:52:31;;;;;;;17.47;10.73;;;13.30;99.90;;;;;;5030895;28;20234;-76
2023/05/10 03:54:57;;;;;;;15.30;11.37;;;13.30;99.90;;;;;;5029374;28;20177;-76
2023/05/10 03:57:22;;;;;;;17.53;10.70;;;13.20;99.90;;;;;;5030553;28;20499;-76
2023/05/10 03:59:48;;;;;;;18.43;11.23;;;13.20;99.90;;;;;;5030580;28;20196;-76
2023/05/10 04:02:13;;;;;;;19.60;11.60;;;13.20;99.90;;;;;;5029416;28;20173;-76
2023/05/10 04:04:39;;;;;;;16.90;11.37;;;13.20;99.90;;;;;;5029643;28;20547;-76
2023/05/10 04:07:05;;;;;;;16.63;11.07;;;13.20;99.90;;;;;;5030646;28;20186;-77
2023/05/10 04:09:30;;;;;;;15.23;11.10;;;13.20;99.90;;;;;;5030554;28;20199;-76
2023/05/10 04:11:56;;;;;;;17.27;11.60;;;13.20;99.90;;;;;;5030469;28;20184;-77
2023/05/10 04:14:21;;;;;;;14.03;10.67;;;13.20;99.90;;;;;;5029268;28;20192;-77
2023/05/10 04:16:47;;;;;;;17.33;11.70;;;13.20;99.90;;;;;;5030365;28;20169;-76
2023/05/10 04:19:12;;;;;;;18.40;10.97;;;13.30;99.90;;;;;;5028822;28;20196;-76
2023/05/10 04:21:38;;;;;;;16.27;11.40;;;13.20;99.90;;;;;;5028737;28;20233;-76
2023/05/10 04:24:04;;;;;;;18.30;12.40;;;13.30;99.90;;;;;;5028905;28;20206;-76
2023/05/10 04:26:29;;;;;;;17.10;12.53;;;13.20;99.90;;;;;;5030278;28;20173;-76
2023/05/10 04:28:55;;;;;;;17.17;12.13;;;13.30;99.90;;;;;;5028911;28;20287;-77
2023/05/10 04:31:21;;;;;;;21.30;12.07;;;13.30;99.90;;;;;;5030468;28;20268;-77
2023/05/10 04:33:46;;;;;;;20.00;12.43;;;13.30;99.90;;;;;;5030045;28;20543;-76
2023/05/10 04:36:12;;;;;;;21.20;13.53;;;13.70;99.90;;;;;;5030074;28;20182;-76
2023/05/10 04:38:38;;;;;;;20.10;13.77;;;13.30;99.90;;;;;;5028278;28;20287;-78
2023/05/10 04:41:05;;;;;;;25.73;14.60;;;13.30;99.90;;;;;;5029596;28;20251;-78
2023/05/10 04:43:30;;;;;;;23.13;15.13;;;13.30;99.90;;;;;;5029625;28;20169;-78
2023/05/10 04:45:59;;;;;;;28.33;18.00;;;13.30;99.90;;;;;;5029743;28;20237;-77
2023/05/10 04:48:24;;;;;;;31.33;18.03;;;13.30;99.90;;;;;;5029391;28;20327;-77
2023/05/10 04:50:50;;;;;;;30.73;18.07;;;13.30;99.90;;;;;;5028557;28;20678;-77
2023/05/10 04:53:15;;;;;;;27.03;16.27;;;13.30;99.90;;;;;;5029394;28;20183;-77
2023/05/10 04:55:41;;;;;;;29.87;17.70;;;13.30;99.90;;;;;;5028320;28;20553;-77
2023/05/10 04:58:07;;;;;;;31.77;18.87;;;13.30;99.90;;;;;;5027818;28;20180;-77
2023/05/10 05:00:33;;;;;;;33.87;19.63;;;13.40;99.90;;;;;;5029429;28;20593;-78
2023/05/10 05:02:59;;;;;;;30.20;18.43;;;13.40;99.90;;;;;;5028278;28;20289;-78
2023/05/10 05:05:25;;;;;;;34.17;18.83;;;13.30;99.90;;;;;;5027970;28;20267;-77
2023/05/10 05:07:50;;;;;;;31.47;20.23;;;13.40;99.90;;;;;;5029246;28;20176;-78
2023/05/10 05:10:16;;;;;;;36.53;20.07;;;13.40;99.90;;;;;;5028978;28;20200;-78
2023/05/10 05:12:41;;;;;;;35.63;19.60;;;13.40;99.90;;;;;;5029151;28;20196;-77
2023/05/10 05:15:09;;;;;;;32.00;20.03;;;13.40;99.90;;;;;;5027824;28;20177;-77
2023/05/10 05:17:34;;;;;;;33.07;20.97;;;13.40;99.90;;;;;;5027745;28;20176;-78
2023/05/10 05:20:00;;;;;;;38.67;21.20;;;13.40;99.90;;;;;;5029162;28;20244;-78
2023/05/10 05:22:27;;;;;;;34.23;20.00;;;13.40;99.90;;;;;;5027722;28;20564;-77
2023/05/10 05:24:58;;;;;;;33.43;21.10;;;13.40;99.90;;;;;;5029083;28;20172;-78
2023/05/10 05:27:25;;;;;;;37.43;21.30;;;13.40;99.90;;;;;;5027518;28;20187;-78
2023/05/10 05:29:53;;;;;;;41.20;20.60;;;13.50;99.90;;;;;;5028760;28;20192;-77
2023/05/10 05:32:19;;;;;;;35.70;21.23;;;13.50;99.90;;;;;;5028827;28;20180;-77
2023/05/10 05:34:45;;;;;;;35.37;22.00;;;13.50;99.90;;;;;;5028838;28;20263;-78
2023/05/10 05:37:15;;;;;;;39.17;22.73;;;13.50;99.90;;;;;;5028849;28;20169;-78
2023/05/10 05:39:41;;;;;;;44.90;23.27;;;13.50;99.90;;;;;;5028716;28;20196;-77
2023/05/10 05:42:06;;;;;;;33.90;21.80;;;13.50;99.90;;;;;;5028759;28;20179;-77
2023/05/10 05:44:32;;;;;;;37.80;21.67;;;13.50;99.90;;;;;;5028760;28;20563;-77
2023/05/10 05:46:57;;;;;;;35.37;21.17;;;13.60;99.90;;;;;;5028708;28;20605;-77
2023/05/10 05:49:23;;;;;;;38.33;22.53;;;13.60;99.90;;;;;;5027923;28;20727;-77
2023/05/10 05:51:50;;;;;;;36.17;22.43;;;13.60;99.90;;;;;;5028770;28;20264;-77
2023/05/10 05:54:15;;;;;;;42.07;22.23;;;13.60;99.90;;;;;;5028560;28;20171;-77
2023/05/10 05:56:41;;;;;;;35.00;22.60;;;13.60;99.90;;;;;;5027304;28;20260;-78
2023/05/10 05:59:06;;;;;;;38.67;22.60;;;13.60;99.90;;;;;;5027231;28;20196;-77
2023/05/10 06:01:32;;;;;;;36.73;21.67;;;13.50;99.90;;;;;;5030425;28;20237;-77
2023/05/10 06:03:57;;;;;;;35.97;22.17;;;13.50;99.90;;;;;;5032222;28;20259;-77
2023/05/10 06:06:23;;;;;;;36.00;21.60;;;13.50;99.90;;;;;;5032264;28;20179;-77
2023/05/10 06:08:48;;;;;;;42.67;22.50;;;13.60;99.90;;;;;;5031705;28;20207;-77
2023/05/10 06:11:14;;;;;;;36.80;22.87;;;13.60;99.90;;;;;;5030604;28;20217;-77
2023/05/10 06:13:40;;;;;;;38.60;23.13;;;13.50;99.90;;;;;;5032359;28;20188;-77
2023/05/10 06:16:05;;;;;;;40.63;22.27;;;13.60;99.90;;;;;;5031002;28;20211;-77
2023/05/10 06:18:31;;;;;;;44.17;24.80;;;13.60;99.90;;;;;;5031956;28;20564;-77
2023/05/10 06:20:57;;;;;;;46.37;24.67;;;13.50;99.90;;;;;;5031832;28;20195;-77
2023/05/10 06:23:22;;;;;;;44.03;23.30;;;13.50;99.90;;;;;;5032000;28;20183;-77
2023/05/10 06:25:48;;;;;;;44.43;23.83;;;13.60;99.90;;;;;;5031785;28;20173;-77
2023/05/10 06:28:13;;;;;;;47.50;24.60;;;13.60;99.90;;;;;;5031587;28;20177;-78
2023/05/10 06:30:39;;;;;;;41.90;24.53;;;13.60;99.90;;;;;;5031750;28;20195;-77
2023/05/10 06:33:05;;;;;;;46.40;24.53;;;13.60;99.90;;;;;;5031701;28;20569;-77
2023/05/10 06:35:32;;;;;;;40.50;23.77;;;13.50;99.90;;;;;;5032621;28;20644;-75
2023/05/10 06:37:57;;;;;;;43.03;23.70;;;13.60;99.90;;;;;;5032976;28;20252;-76
2023/05/10 06:40:23;;;;;;;41.00;22.27;;;13.60;99.90;;;;;;5031459;28;20238;-75
2023/05/10 06:42:48;;;;;;;36.07;21.70;;;13.60;99.90;;;;;;5031632;28;20263;-76
2023/05/10 06:45:15;;;;;;;51.33;24.00;;;13.60;99.90;;;;;;5031305;28;20176;-75
2023/05/10 06:47:41;;;;;;;46.63;25.13;;;13.70;99.90;;;;;;5031461;28;20225;-76
2023/05/10 06:50:08;;;;;;;44.77;23.13;;;13.60;99.90;;;;;;5031073;28;20214;-77
2023/05/10 06:52:33;;;;;;;48.53;24.40;;;13.70;99.90;;;;;;5031375;28;20214;-76
2023/05/10 06:55:00;;;;;;;47.43;24.67;;;13.70;99.90;;;;;;5031787;28;20172;-76
2023/05/10 06:57:25;;;;;;;49.67;25.23;;;13.80;99.90;;;;;;5032608;28;20169;-76
2023/05/10 06:59:52;;;;;;;51.37;25.10;;;13.70;99.90;;;;;;5032400;28;20192;-76
2023/05/10 07:02:17;;;;;;;45.33;24.30;;;13.70;99.90;;;;;;5032656;28;20168;-76
2023/05/10 07:04:43;;;;;;;48.20;23.07;;;13.70;99.90;;;;;;5031142;28;20547;-76
2023/05/10 07:07:08;;;;;;;46.83;24.43;;;13.80;99.90;;;;;;5032502;28;20207;-76
2023/05/10 07:09:34;;;;;;;51.43;24.07;;;13.70;99.90;;;;;;5032095;28;20574;-76
2023/05/10 07:12:01;;;;;;;50.77;23.60;;;13.70;99.90;;;;;;5031879;28;20245;-76
2023/05/10 07:14:27;;;;;;;45.47;23.30;;;13.70;99.90;;;;;;5031931;28;20172;-75
2023/05/10 07:16:52;;;;;;;56.10;24.47;;;13.70;99.90;;;;;;5032150;28;20177;-76
2023/05/10 07:19:18;;;;;;;48.27;24.50;;;13.80;99.90;;;;;;5031996;28;20659;-76
2023/05/10 07:21:43;;;;;;;41.40;22.30;;;13.70;99.90;;;;;;5030849;28;20532;-76
2023/05/10 07:24:09;;;;;;;57.17;24.00;;;13.70;99.90;;;;;;5029642;28;20188;-76
2023/05/10 07:26:35;;;;;;;43.07;22.87;;;13.70;99.90;;;;;;5031989;28;20179;-76
2023/05/10 07:29:00;;;;;;;43.37;21.70;;;13.70;99.90;;;;;;5030253;28;20203;-76
2023/05/10 07:31:26;;;;;;;41.40;20.60;;;13.60;99.90;;;;;;5032476;28;20169;-75
2023/05/10 07:33:51;;;;;;;43.53;21.83;;;13.70;99.90;;;;;;5031313;28;20185;-76
2023/05/10 07:36:17;;;;;;;38.47;19.73;;;13.70;99.90;;;;;;5030820;28;20172;-75
2023/05/10 07:38:43;;;;;;;40.27;20.33;;;13.70;99.90;;;;;;5030695;28;20291;-76
2023/05/10 07:41:08;;;;;;;43.40;21.20;;;13.80;99.90;;;;;;5030617;28;20176;-76
2023/05/10 07:43:34;;;;;;;44.13;21.53;;;13.80;99.90;;;;;;5030792;28;20663;-76
2023/05/10 07:45:59;;;;;;;40.17;21.40;;;13.90;99.90;;;;;;5030627;28;20275;-76
2023/05/10 07:48:25;;;;;;;40.60;20.53;;;13.90;99.90;;;;;;5031679;28;20218;-76
2023/05/10 07:50:51;;;;;;;41.07;20.50;;;14.00;99.90;;;;;;5031764;28;20278;-76
2023/05/10 07:53:18;;;;;;;45.37;21.37;;;14.10;99.90;;;;;;5030266;28;20184;-76
2023/05/10 07:55:44;;;;;;;44.10;20.90;;;14.10;99.90;;;;;;5029951;28;20180;-76
2023/05/10 07:58:09;;;;;;;37.40;19.83;;;14.10;99.90;;;;;;5029813;28;20184;-75
2023/05/10 08:00:35;;;;;;;33.37;17.43;;;14.20;99.90;;;;;;5029818;28;20191;-76
2023/05/10 08:03:00;;;;;;;36.40;19.73;;;14.20;99.90;;;;;;5026489;28;20185;-76
2023/05/10 08:05:26;;;;;;;35.47;19.10;;;14.20;99.90;;;;;;5009802;28;20656;-76
2023/05/10 08:07:51;;;;;;;32.00;18.60;;;14.10;99.90;;;;;;5009979;28;20181;-76
2023/05/10 08:10:17;;;;;;;36.60;19.97;;;14.10;99.90;;;;;;5011230;28;20684;-76
2023/05/10 08:12:42;;;;;;;37.13;21.63;;;14.20;99.90;;;;;;5011068;28;20204;-76
2023/05/10 08:15:08;;;;;;;53.13;24.90;;;14.20;99.90;;;;;;5011092;28;20177;-76
2023/05/10 08:17:34;;;;;;;47.57;24.57;;;14.30;99.90;;;;;;5010935;28;20176;-76
2023/05/10 08:20:00;;;;;;;50.77;24.13;;;14.20;99.90;;;;;;5011058;28;20231;-76
2023/05/10 08:22:25;;;;;;;46.23;23.93;;;14.20;99.90;;;;;;5011395;28;20181;-75
2023/05/10 08:24:51;;;;;;;47.23;24.27;;;14.30;99.90;;;;;;5030027;28;20245;-76
2023/05/10 08:27:16;;;;;;;50.90;23.67;;;14.30;99.90;;;;;;5031600;28;20187;-76
2023/05/10 08:29:42;;;;;;;50.20;25.37;;;14.40;99.90;;;;;;5029963;28;20242;-75
2023/05/10 08:32:07;;;;;;;48.97;25.30;;;14.40;99.90;;;;;;5031086;28;20187;-75
2023/05/10 08:34:33;;;;;;;46.33;24.17;;;14.30;99.90;;;;;;5030127;28;20190;-75
2023/05/10 08:36:58;;;;;;;45.07;23.77;;;14.30;99.90;;;;;;5031119;28;20585;-76
2023/05/10 08:39:24;;;;;;;51.67;26.00;;;14.40;99.90;;;;;;5030921;28;20192;-76
2023/05/10 08:41:53;;;;;;;41.60;22.87;;;14.40;99.90;;;;;;5031090;28;20256;-76
2023/05/10 08:44:20;;;;;;;43.90;22.83;;;14.40;99.90;;;;;;5016661;28;20575;-76
2023/05/10 08:46:46;;;;;;;42.77;23.17;;;14.50;99.90;;;;;;5010968;28;20185;-75
2023/05/10 08:49:20;;;;;;;42.60;22.70;;;14.50;99.90;;;;;;5010904;28;20200;-75
2023/05/10 08:51:51;;;;;;;41.43;22.73;;;14.40;99.90;;;;;;5009531;28;20180;-76
2023/05/10 08:54:17;;;;;;;40.47;22.97;;;14.40;99.90;;;;;;5010910;28;20177;-76
2023/05/10 08:56:43;;;;;;;41.80;22.93;;;14.40;99.90;;;;;;5011015;28;20188;-76
2023/05/10 08:59:08;;;;;;;41.67;21.93;;;14.30;99.90;;;;;;5010940;28;20672;-76
2023/05/10 09:01:36;;;;;;;38.57;22.77;;;14.20;99.90;;;;;;5011138;28;20188;-76
2023/05/10 09:04:02;;;;;;;44.63;21.53;;;14.20;99.90;;;;;;5020377;28;20192;-76
2023/05/10 09:06:28;;;;;;;35.53;21.90;;;14.20;99.90;;;;;;5030491;28;20233;-77
2023/05/10 09:08:54;;;;;;;36.30;20.53;;;14.20;99.90;;;;;;5030516;28;20207;-76
2023/05/10 09:11:20;;;;;;;38.27;21.90;;;14.10;99.90;;;;;;5030210;28;20719;-76
2023/05/10 09:13:48;;;;;;;33.20;20.43;;;14.10;99.90;;;;;;5021620;28;20208;-75
2023/05/10 09:16:13;;;;;;;30.53;20.97;;;14.10;99.90;;;;;;5009409;28;20169;-76
2023/05/10 09:18:39;;;;;;;36.57;20.53;;;14.20;99.90;;;;;;5010541;28;20208;-75
2023/05/10 09:21:04;;;;;;;34.13;20.83;;;14.20;99.90;;;;;;5010543;28;20181;-76
2023/05/10 09:23:32;;;;;;;34.80;19.93;;;14.20;99.90;;;;;;5010604;28;20529;-76
2023/05/10 09:26:07;;;;;;;29.63;17.37;;;14.30;99.90;;;;;;5010727;28;20173;-76
2023/05/10 09:28:34;;;;;;;29.57;17.57;;;14.40;99.90;;;;;;5009269;28;20201;-75
2023/05/10 09:30:59;;;;;;;27.83;17.53;;;14.50;99.90;;;;;;5008990;28;20172;-76
2023/05/10 09:33:25;;;;;;;26.20;16.13;;;14.60;99.90;;;;;;5010723;28;20184;-76
2023/05/10 09:35:52;;;;;;;25.10;16.43;;;14.70;99.90;;;;;;5012819;28;20196;-76
2023/05/10 09:38:17;;;;;;;27.97;17.30;;;14.70;99.90;;;;;;5017423;28;20200;-75
2023/05/10 09:40:54;;;;;;;22.03;15.17;;;14.70;99.90;;;;;;5016009;28;20180;-76
2023/05/10 09:43:20;;;;;;;21.23;14.73;;;14.70;99.90;;;;;;5016007;28;20199;-77
2023/05/10 09:45:48;;;;;;;22.33;14.53;;;14.80;99.90;;;;;;5015673;28;20262;-76
2023/05/10 09:48:14;;;;;;;22.90;14.37;;;14.70;99.90;;;;;;5015677;28;20214;-76
2023/05/10 09:50:40;;;;;;;20.57;13.07;;;14.60;99.90;;;;;;5015720;28;20204;-76
2023/05/10 09:53:06;;;;;;;21.87;13.63;;;14.70;99.90;;;;;;5018375;28;20540;-77
2023/05/10 09:55:46;;;;;;;23.73;14.60;;;14.60;99.90;;;;;;5034883;28;20816;-76
2023/05/10 09:58:13;;;;;;;23.33;14.13;;;14.60;99.90;;;;;;5036500;28;20547;-76
2023/05/10 10:00:40;;;;;;;19.73;14.43;;;14.60;99.90;;;;;;5036593;28;20236;-76
2023/05/10 10:03:11;;;;;;;27.43;14.27;;;14.70;99.90;;;;;;5033036;28;20180;-76
2023/05/10 10:05:41;;;;;;;23.90;14.17;;;14.80;99.90;;;;;;5016825;28;20201;-76
2023/05/10 10:08:06;;;;;;;21.53;14.27;;;14.90;99.90;;;;;;5016849;28;20183;-76
2023/05/10 10:10:33;;;;;;;20.00;13.60;;;14.90;99.90;;;;;;5016569;28;20631;-76
2023/05/10 10:12:59;;;;;;;20.10;13.37;;;14.90;99.90;;;;;;5015201;28;20566;-78
2023/05/10 10:15:25;;;;;;;19.57;13.93;;;14.90;99.90;;;;;;5016835;28;20173;-77
2023/05/10 10:17:52;;;;;;;22.10;14.47;;;14.80;99.90;;;;;;5016424;28;20241;-76
2023/05/10 10:20:19;;;;;;;21.97;14.60;;;14.70;99.90;;;;;;5015948;28;20203;-77
2023/05/10 10:22:46;;;;;;;24.07;15.20;;;14.60;99.90;;;;;;5015442;28;20207;-76
2023/05/10 10:25:14;;;;;;;23.27;14.63;;;14.50;99.90;;;;;;5015938;28;20196;-76
2023/05/10 10:28:02;;;;;;;22.23;14.70;;;14.50;99.90;;;;;;5015979;28;20640;-77
2023/05/10 10:30:48;;;;;;;21.70;13.70;;;14.50;99.90;;;;;;5015626;28;20193;-77
2023/05/10 10:33:40;;;;;;;20.33;14.60;;;14.50;99.90;;;;;;5015655;28;20169;-78
2023/05/10 10:36:07;;;;;;;22.40;14.47;;;14.50;99.90;;;;;;5016346;28;20240;-76
2023/05/10 10:38:59;;;;;;;18.80;14.20;;;14.60;99.90;;;;;;5016012;28;20257;-77
2023/05/10 10:41:34;;;;;;;21.03;12.83;;;14.60;99.90;;;;;;5022673;28;20200;-77
2023/05/10 10:44:22;;;;;;;21.10;13.20;;;14.60;99.90;;;;;;5023636;28;20558;-77
2023/05/10 10:47:24;;;;;;;19.03;12.73;;;14.70;99.90;;;;;;5033665;28;20196;-77
2023/05/10 10:50:02;;;;;;;20.27;13.17;;;14.70;99.90;;;;;;5064073;28;20224;-77
2023/05/10 10:52:35;;;;;;;18.97;13.03;;;14.90;99.90;;;;;;5031306;28;20184;-77
2023/05/10 10:55:04;;;;;;;19.93;13.40;;;14.90;99.90;;;;;;5014462;28;20193;-77
2023/05/10 10:57:51;;;;;;;17.20;11.43;;;14.90;99.90;;;;;;5011184;28;20185;-77
2023/05/10 11:00:30;;;;;;;15.27;10.10;;;14.90;99.90;;;;;;5012691;28;20197;-77
2023/05/10 11:03:18;;;;;;;17.63;11.13;;;14.80;99.90;;;;;;5012682;28;20157;-76
2023/05/10 11:05:57;;;;;;;15.77;10.40;;;14.80;99.90;;;;;;5010962;28;20185;-77
2023/05/10 11:08:34;;;;;;;14.43;9.93;;;14.80;99.90;;;;;;5011221;28;20270;-76
2023/05/10 11:10:59;;;;;;;14.10;9.70;;;14.90;99.90;;;;;;5011040;28;20169;-76
2023/05/10 11:13:37;;;;;;;14.93;9.57;;;14.90;99.90;;;;;;5012135;28;20621;-77
2023/05/10 11:16:20;;;;;;;12.97;9.13;;;14.90;99.90;;;;;;5010866;28;20532;-76
2023/05/10 11:19:09;;;;;;;12.60;9.03;;;14.90;99.90;;;;;;5012432;28;20196;-77
2023/05/10 11:21:49;;;;;;;15.57;10.60;;;14.90;99.90;;;;;;5020609;28;20197;-76
2023/05/10 11:24:18;;;;;;;15.00;10.67;;;15.00;99.90;;;;;;5011732;28;20189;-77
2023/05/10 11:26:44;;;;;;;14.97;9.70;;;14.90;99.90;;;;;;5010681;28;20209;-76
2023/05/10 11:29:10;;;;;;;13.87;10.23;;;15.00;99.90;;;;;;5010357;28;20215;-77
2023/05/10 11:31:43;;;;;;;14.50;10.27;;;15.00;99.90;;;;;;5012254;28;20169;-77
2023/05/10 11:34:09;;;;;;;16.07;10.17;;;15.00;99.90;;;;;;5012052;28;20185;-77
2023/05/10 11:36:36;;;;;;;13.67;10.00;;;15.00;99.90;;;;;;5010551;28;20309;-77
2023/05/10 11:39:02;;;;;;;15.67;10.63;;;15.10;99.90;;;;;;5011662;28;20692;-77
2023/05/10 11:41:29;;;;;;;18.27;10.17;;;15.10;99.90;;;;;;5010054;28;20625;-77
2023/05/10 11:43:56;;;;;;;15.73;11.20;;;15.10;99.90;;;;;;5009868;28;20184;-78
2023/05/10 11:46:23;;;;;;;15.03;10.77;;;15.20;99.90;;;;;;5011651;28;20181;-77
2023/05/10 11:48:50;;;;;;;13.77;11.33;;;15.10;99.90;;;;;;5011258;28;20253;-76
2023/05/10 11:51:21;;;;;;;12.57;10.17;;;15.10;99.90;;;;;;5010262;28;20173;-77
2023/05/10 11:53:46;;;;;;;14.57;10.70;;;15.10;99.90;;;;;;5015859;28;20192;-76
2023/05/10 11:56:12;;;;;;;14.00;10.50;;;15.10;99.90;;;;;;5031227;28;20180;-77
2023/05/10 11:58:38;;;;;;;14.77;9.77;;;15.20;99.90;;;;;;5030865;28;20192;-78
2023/05/10 12:01:06;;;;;;;13.27;9.93;;;15.20;99.90;;;;;;5030929;28;20171;-77
2023/05/10 12:03:32;;;;;;;11.60;9.63;;;15.30;99.90;;;;;;5028912;28;20180;-77
2023/05/10 12:05:59;;;;;;;13.83;9.27;;;15.40;99.90;;;;;;5030740;28;20213;-78
2023/05/10 12:08:28;;;;;;;11.77;9.33;;;15.40;99.90;;;;;;5029500;28;20764;-77
2023/05/10 12:11:05;;;;;;;10.57;7.93;;;15.40;99.90;;;;;;5031062;28;20172;-77
2023/05/10 12:13:30;;;;;;;11.40;8.23;;;15.40;99.90;;;;;;5029741;28;20193;-77
2023/05/10 12:16:00;;;;;;;10.23;7.63;;;15.40;99.90;;;;;;5030049;28;20177;-76
2023/05/10 12:18:25;;;;;;;9.30;8.33;;;15.40;99.90;;;;;;5026976;28;20219;-77
2023/05/10 12:20:54;;;;;;;10.13;8.20;;;15.40;99.90;;;;;;5026213;28;20188;-77
2023/05/10 12:23:20;;;;;;;9.70;8.70;;;15.40;99.90;;;;;;5030592;28;20268;-77
2023/05/10 12:25:46;;;;;;;15.10;9.27;;;15.50;99.90;;;;;;5031551;28;20165;-76
2023/05/10 12:28:12;;;;;;;14.47;9.30;;;15.50;99.90;;;;;;5031004;28;20591;-77
2023/05/10 12:30:38;;;;;;;10.13;8.13;;;15.50;99.90;;;;;;5030931;28;20204;-77
2023/05/10 12:33:07;;;;;;;12.90;9.53;;;15.70;99.90;;;;;;5028785;28;20625;-76